Time;durP1;ratioP1;P1;durP2;ratioP2;P2;SDS_P1;SDS_P2;PMS_P1;PMS_P2;Temp;Humidity;BMP_temperature;BMP_pressure;BME280_temperature;BME280_humidity;BME280_pressure;Samples;Min_cycle;Max_cycle;Signal;HPM_P1;HPM_P2
2022/03/04 00:01:46;;;;;;;33.13;16.70;;;-2.00;99.90;;;;;;5027965;28;20198;-84
2022/03/04 00:04:13;;;;;;;35.13;17.80;;;-2.00;99.90;;;;;;5025721;28;20195;-84
2022/03/04 00:06:39;;;;;;;36.43;16.83;;;-2.00;99.90;;;;;;5025471;28;20414;-84
2022/03/04 00:09:06;;;;;;;30.83;15.97;;;-2.10;99.90;;;;;;5025449;28;20457;-84
2022/03/04 00:11:32;;;;;;;39.23;17.47;;;-2.20;99.90;;;;;;5026843;28;20445;-84
2022/03/04 00:13:58;;;;;;;32.90;15.37;;;-2.20;99.90;;;;;;5027446;28;20199;-86
2022/03/04 00:16:24;;;;;;;34.23;16.33;;;-2.10;99.90;;;;;;5027819;28;20472;-84
2022/03/04 00:19:06;;;;;;;29.13;15.90;;;-2.20;99.90;;;;;;5025118;28;20179;-85
2022/03/04 00:21:38;;;;;;;30.80;15.37;;;-2.30;99.90;;;;;;5028326;28;20417;-84
2022/03/04 00:24:05;;;;;;;34.13;16.00;;;-2.30;99.90;;;;;;5027708;28;20446;-85
2022/03/04 00:26:31;;;;;;;26.17;14.90;;;-2.30;99.90;;;;;;5027702;28;20426;-84
2022/03/04 00:28:57;;;;;;;29.10;15.47;;;-2.30;99.90;;;;;;5028308;28;20476;-86
2022/03/04 00:31:23;;;;;;;25.23;13.13;;;-2.30;99.90;;;;;;5029059;28;20175;-85
2022/03/04 00:33:49;;;;;;;32.53;14.80;;;-2.40;99.90;;;;;;5028247;28;20446;-84
2022/03/04 00:36:15;;;;;;;29.10;14.50;;;-2.20;99.90;;;;;;5028234;28;20421;-84
2022/03/04 00:38:41;;;;;;;27.53;14.80;;;-2.40;99.90;;;;;;5030042;28;20417;-84
2022/03/04 00:41:06;;;;;;;31.57;16.23;;;-2.30;99.90;;;;;;5028048;28;20174;-85
2022/03/04 00:43:32;;;;;;;27.40;15.07;;;-2.20;99.90;;;;;;5027432;28;20195;-87
2022/03/04 00:45:58;;;;;;;29.87;15.27;;;-2.50;99.90;;;;;;5027650;28;20246;-85
2022/03/04 00:48:23;;;;;;;46.03;20.67;;;-2.50;99.90;;;;;;5029431;28;20209;-85
2022/03/04 00:50:49;;;;;;;47.03;20.63;;;-2.60;99.90;;;;;;5028086;28;20186;-85
2022/03/04 00:53:15;;;;;;;55.90;22.57;;;-2.60;99.90;;;;;;5027591;28;20179;-85
2022/03/04 00:55:40;;;;;;;70.60;27.30;;;-2.60;99.90;;;;;;5028869;28;20195;-85
2022/03/04 00:58:07;;;;;;;49.40;21.00;;;-2.70;99.90;;;;;;5028501;28;20211;-85
2022/03/04 01:00:40;;;;;;;52.03;20.53;;;-2.70;99.90;;;;;;5028913;28;20175;-84
2022/03/04 01:03:05;;;;;;;46.10;19.83;;;-2.70;99.90;;;;;;5027295;28;20609;-86
2022/03/04 01:05:31;;;;;;;35.60;15.60;;;-2.70;99.90;;;;;;5026950;28;20422;-85
2022/03/04 01:07:57;;;;;;;33.70;15.83;;;-2.70;99.90;;;;;;5028132;28;20183;-85
2022/03/04 01:10:22;;;;;;;32.47;16.63;;;-2.40;99.90;;;;;;5026561;28;20179;-85
2022/03/04 01:12:48;;;;;;;30.40;15.13;;;-1.90;99.90;;;;;;5024014;28;20183;-84
2022/03/04 01:15:14;;;;;;;29.07;14.33;;;-2.80;99.90;;;;;;5028837;28;20211;-84
2022/03/04 01:17:39;;;;;;;27.37;14.17;;;-2.80;99.90;;;;;;5028118;28;20532;-85
2022/03/04 01:20:06;;;;;;;21.50;11.97;;;-2.80;99.90;;;;;;5026825;28;20179;-85
2022/03/04 01:22:32;;;;;;;22.63;12.17;;;-2.90;99.90;;;;;;5026832;28;20178;-85
2022/03/04 01:24:58;;;;;;;21.73;10.90;;;-2.90;99.90;;;;;;5027393;28;20441;-84
2022/03/04 01:27:24;;;;;;;24.80;11.07;;;-2.90;99.90;;;;;;5026980;28;20883;-84
2022/03/04 01:29:50;;;;;;;22.40;10.73;;;-2.70;99.90;;;;;;5027748;28;20190;-86
2022/03/04 01:32:16;;;;;;;31.30;14.37;;;-2.90;99.90;;;;;;5027778;28;20422;-85
2022/03/04 01:34:42;;;;;;;37.03;16.00;;;-2.90;99.90;;;;;;5027240;28;20211;-84
2022/03/04 01:37:08;;;;;;;36.77;15.57;;;-2.90;99.90;;;;;;5028396;28;20577;-85
2022/03/04 01:39:35;;;;;;;31.90;15.37;;;-2.90;99.90;;;;;;5026857;28;20429;-85
2022/03/04 01:42:01;;;;;;;30.13;13.20;;;-2.90;99.90;;;;;;5028015;28;20437;-85
2022/03/04 01:44:27;;;;;;;25.07;13.47;;;-2.90;99.90;;;;;;5028088;28;20999;-85
2022/03/04 01:46:52;;;;;;;22.17;12.33;;;-2.90;99.90;;;;;;5028013;28;20182;-85
2022/03/04 01:49:18;;;;;;;29.87;13.87;;;-3.00;99.90;;;;;;5028147;28;20241;-85
2022/03/04 01:51:44;;;;;;;24.03;13.00;;;-3.00;99.90;;;;;;5027143;28;20189;-85
2022/03/04 01:54:09;;;;;;;23.57;12.10;;;-3.00;99.90;;;;;;5027065;28;20225;-85
2022/03/04 01:56:35;;;;;;;22.13;12.17;;;-3.10;99.90;;;;;;5027833;28;20191;-85
2022/03/04 01:59:01;;;;;;;25.67;12.10;;;-3.10;99.90;;;;;;5027094;28;20248;-85
2022/03/04 02:01:27;;;;;;;23.97;11.87;;;-3.10;99.90;;;;;;5027975;28;20174;-85
2022/03/04 02:03:52;;;;;;;22.17;12.93;;;-3.20;99.90;;;;;;5024960;28;20219;-84
2022/03/04 02:06:18;;;;;;;22.47;12.07;;;-3.20;99.90;;;;;;5027835;28;20247;-84
2022/03/04 02:08:44;;;;;;;23.43;13.27;;;-3.30;99.90;;;;;;5026932;28;20175;-84
2022/03/04 02:11:10;;;;;;;21.43;11.63;;;-3.30;99.90;;;;;;5026067;28;20179;-85
2022/03/04 02:13:37;;;;;;;21.97;11.47;;;-3.40;99.90;;;;;;5026558;28;20203;-84
2022/03/04 02:16:17;;;;;;;16.60;10.23;;;-3.40;99.90;;;;;;5026657;28;20247;-84
2022/03/04 02:18:43;;;;;;;20.47;10.07;;;-3.40;99.90;;;;;;5025857;28;20448;-85
2022/03/04 02:21:10;;;;;;;19.83;10.13;;;-3.30;99.90;;;;;;5025955;28;20418;-85
2022/03/04 02:23:36;;;;;;;17.57;10.03;;;-3.40;99.90;;;;;;5025599;28;20223;-86
2022/03/04 02:26:01;;;;;;;21.27;9.80;;;-3.40;99.90;;;;;;5027699;28;20407;-85
2022/03/04 02:28:27;;;;;;;18.40;9.00;;;-3.50;99.90;;;;;;5026548;28;20186;-85
2022/03/04 02:30:53;;;;;;;19.00;9.07;;;-3.50;99.90;;;;;;5027702;28;20225;-85
2022/03/04 02:33:19;;;;;;;17.40;9.67;;;-3.50;99.90;;;;;;5029247;28;20179;-84
2022/03/04 02:35:45;;;;;;;21.30;10.67;;;-3.70;99.90;;;;;;5026427;28;20218;-85
2022/03/04 02:38:10;;;;;;;17.80;9.33;;;-3.60;99.90;;;;;;5025585;28;20286;-84
2022/03/04 02:40:36;;;;;;;19.90;9.83;;;-3.50;99.90;;;;;;5025060;28;20476;-84
2022/03/04 02:43:03;;;;;;;15.80;10.00;;;-3.60;99.90;;;;;;5026177;28;20171;-83
2022/03/04 02:45:29;;;;;;;18.80;10.43;;;-3.60;99.90;;;;;;5032488;28;20175;-84
2022/03/04 02:47:55;;;;;;;17.97;9.33;;;-3.60;99.90;;;;;;5027492;28;20420;-85
2022/03/04 02:50:20;;;;;;;19.00;9.60;;;-3.70;99.90;;;;;;5020960;28;20262;-85
2022/03/04 02:52:46;;;;;;;21.47;9.87;;;-3.80;99.90;;;;;;5028380;28;20194;-85
2022/03/04 02:55:12;;;;;;;17.77;9.17;;;-3.80;99.90;;;;;;5026125;28;20222;-85
2022/03/04 02:57:44;;;;;;;23.00;10.43;;;-3.80;99.90;;;;;;5036258;28;20244;-85
2022/03/04 03:00:12;;;;;;;18.97;10.13;;;-3.80;99.90;;;;;;5039052;28;20169;-85
2022/03/04 03:02:38;;;;;;;19.60;10.63;;;-3.90;99.90;;;;;;5025741;28;20455;-84
2022/03/04 03:05:04;;;;;;;18.00;9.77;;;-3.80;99.90;;;;;;5026160;28;20441;-84
2022/03/04 03:07:30;;;;;;;16.23;8.63;;;-3.90;99.90;;;;;;5027309;28;20171;-84
2022/03/04 03:09:56;;;;;;;17.37;9.80;;;-3.90;99.90;;;;;;5025572;28;20445;-84
2022/03/04 03:12:22;;;;;;;19.97;10.47;;;-3.90;99.90;;;;;;5027140;28;20171;-84
2022/03/04 03:14:47;;;;;;;17.80;8.90;;;-3.90;99.90;;;;;;5025236;28;20292;-84
2022/03/04 03:17:13;;;;;;;18.50;10.03;;;-3.90;99.90;;;;;;5025368;28;20301;-84
2022/03/04 03:19:39;;;;;;;19.23;9.83;;;-4.00;99.90;;;;;;5026875;28;20181;-84
2022/03/04 03:22:05;;;;;;;19.17;10.33;;;-4.00;99.90;;;;;;5024797;28;20193;-84
2022/03/04 03:24:30;;;;;;;19.77;9.47;;;-4.00;99.90;;;;;;5025108;28;20540;-84
2022/03/04 03:26:56;;;;;;;17.00;9.83;;;-4.00;99.90;;;;;;5025942;28;20421;-84
2022/03/04 03:29:22;;;;;;;17.90;9.80;;;-4.10;99.90;;;;;;5025246;28;20190;-84
2022/03/04 03:31:48;;;;;;;18.27;9.97;;;-4.10;99.90;;;;;;5025734;28;20187;-84
2022/03/04 03:34:14;;;;;;;23.13;11.50;;;-4.20;99.90;;;;;;5025025;28;20213;-84
2022/03/04 03:36:40;;;;;;;17.60;10.00;;;-4.20;99.90;;;;;;5025866;28;20233;-84
2022/03/04 03:39:08;;;;;;;20.17;9.47;;;-4.20;99.90;;;;;;5026267;28;20414;-84
2022/03/04 03:41:35;;;;;;;17.10;9.23;;;-4.20;99.90;;;;;;5025323;28;20422;-84
2022/03/04 03:44:01;;;;;;;20.60;10.57;;;-4.30;99.90;;;;;;5026676;28;20452;-84
2022/03/04 03:46:26;;;;;;;18.10;9.47;;;-4.30;99.90;;;;;;5025396;28;20416;-84
2022/03/04 03:48:52;;;;;;;21.90;9.83;;;-4.30;99.90;;;;;;5026415;28;20247;-84
2022/03/04 03:51:18;;;;;;;16.77;9.60;;;-4.30;99.90;;;;;;5025380;28;20179;-84
2022/03/04 03:53:43;;;;;;;19.17;9.33;;;-4.30;99.90;;;;;;5024562;28;20266;-84
2022/03/04 03:56:09;;;;;;;17.47;10.03;;;-4.30;99.90;;;;;;5026287;28;20217;-85
2022/03/04 03:58:35;;;;;;;18.70;10.37;;;-4.40;99.90;;;;;;5025595;28;20237;-84
2022/03/04 04:01:01;;;;;;;17.90;10.43;;;-4.40;99.90;;;;;;5025943;28;20186;-84
2022/03/04 04:03:26;;;;;;;17.63;10.00;;;-4.40;99.90;;;;;;5026263;28;20206;-84
2022/03/04 04:05:52;;;;;;;19.80;10.57;;;-4.50;99.90;;;;;;5027277;28;20186;-84
2022/03/04 04:08:17;;;;;;;16.83;10.37;;;-4.50;99.90;;;;;;5026596;28;20182;-84
2022/03/04 04:10:43;;;;;;;21.00;11.53;;;-4.50;99.90;;;;;;5027630;28;20185;-84
2022/03/04 04:13:09;;;;;;;20.80;9.97;;;-4.40;99.90;;;;;;5027180;28;20189;-85
2022/03/04 04:15:34;;;;;;;22.10;11.43;;;-4.50;99.90;;;;;;5030777;28;20167;-84
2022/03/04 04:18:00;;;;;;;17.30;9.60;;;-4.50;99.90;;;;;;5030965;28;20787;-84
2022/03/04 04:20:26;;;;;;;17.83;9.83;;;-4.00;99.90;;;;;;5028605;28;20258;-84
2022/03/04 04:22:52;;;;;;;15.10;9.27;;;-4.50;99.90;;;;;;5033219;28;20231;-84
2022/03/04 04:25:17;;;;;;;16.90;10.07;;;-4.50;99.90;;;;;;5037742;28;20201;-83
2022/03/04 04:27:43;;;;;;;19.90;9.03;;;-4.50;99.90;;;;;;5037848;28;20215;-83
2022/03/04 04:30:09;;;;;;;19.73;9.40;;;-4.60;99.90;;;;;;5027996;28;20179;-84
2022/03/04 04:32:35;;;;;;;16.53;9.40;;;-4.60;99.90;;;;;;5024331;28;20190;-84
2022/03/04 04:35:00;;;;;;;20.43;10.43;;;-4.60;99.90;;;;;;5024167;28;20444;-84
2022/03/04 04:37:26;;;;;;;18.17;10.23;;;-4.70;99.90;;;;;;5024194;28;20198;-84
2022/03/04 04:39:52;;;;;;;21.13;9.90;;;-4.70;99.90;;;;;;5025101;28;20174;-84
2022/03/04 04:42:18;;;;;;;15.53;9.33;;;-4.70;99.90;;;;;;5023322;28;20198;-84
2022/03/04 04:44:43;;;;;;;17.47;10.03;;;-4.80;99.90;;;;;;5024004;28;20625;-84
2022/03/04 04:47:09;;;;;;;18.23;9.50;;;-4.80;99.90;;;;;;5023787;28;20540;-84
2022/03/04 04:49:36;;;;;;;16.33;8.43;;;-4.80;99.90;;;;;;5023647;28;20183;-84
2022/03/04 04:52:05;;;;;;;16.00;9.40;;;-4.80;99.90;;;;;;5023723;28;20410;-84
2022/03/04 04:54:31;;;;;;;18.30;9.23;;;-4.80;99.90;;;;;;5023569;28;20836;-84
2022/03/04 04:56:56;;;;;;;16.70;9.00;;;-4.80;99.90;;;;;;5024544;28;20468;-84
2022/03/04 04:59:22;;;;;;;16.03;8.83;;;-4.80;99.90;;;;;;5024146;28;20181;-84
2022/03/04 05:01:48;;;;;;;16.13;8.80;;;-4.80;99.90;;;;;;5024148;28;20178;-84
2022/03/04 05:04:13;;;;;;;19.13;9.47;;;-4.80;99.90;;;;;;5023534;28;20295;-84
2022/03/04 05:06:39;;;;;;;16.00;9.33;;;-4.80;99.90;;;;;;5023923;28;20642;-84
2022/03/04 05:09:04;;;;;;;16.77;9.80;;;-4.80;99.90;;;;;;5024953;28;20660;-84
2022/03/04 05:11:30;;;;;;;21.27;9.90;;;-5.00;99.90;;;;;;5025068;28;20186;-84
2022/03/04 05:13:56;;;;;;;21.57;9.43;;;-5.10;99.90;;;;;;5023896;28;20277;-84
2022/03/04 05:16:22;;;;;;;21.63;10.50;;;-5.20;99.90;;;;;;5024226;28;20192;-84
2022/03/04 05:18:47;;;;;;;14.47;8.63;;;-5.20;99.90;;;;;;5025089;28;20179;-84
2022/03/04 05:21:13;;;;;;;15.90;9.83;;;-5.10;99.90;;;;;;5024089;28;20241;-84
2022/03/04 05:26:23;;;;;;;18.40;9.93;;;-5.00;99.90;;;;;;5026045;28;20190;-84
2022/03/04 05:28:50;;;;;;;19.10;9.77;;;-5.10;99.90;;;;;;5025608;28;20413;-85
2022/03/04 05:31:15;;;;;;;19.77;9.67;;;-5.10;99.90;;;;;;5024903;28;20284;-84
2022/03/04 05:33:41;;;;;;;20.73;10.47;;;-5.00;99.90;;;;;;5025620;28;21021;-84
2022/03/04 05:36:08;;;;;;;18.90;10.10;;;-5.20;99.90;;;;;;5027352;28;20202;-84
2022/03/04 05:38:34;;;;;;;19.07;9.87;;;-5.30;99.90;;;;;;5021773;28;20308;-84
2022/03/04 05:40:59;;;;;;;19.60;9.87;;;-5.20;99.90;;;;;;5020374;28;20463;-84
2022/03/04 05:43:25;;;;;;;17.80;9.43;;;-5.30;99.90;;;;;;5020304;28;20199;-84
2022/03/04 05:45:51;;;;;;;16.43;10.40;;;-5.30;99.90;;;;;;5019777;28;20637;-84
2022/03/04 05:48:17;;;;;;;23.77;10.27;;;-5.30;99.90;;;;;;5020713;28;20175;-84
2022/03/04 05:50:43;;;;;;;16.70;10.20;;;-5.30;99.90;;;;;;5019856;28;20179;-84
2022/03/04 05:53:09;;;;;;;21.27;10.20;;;-5.20;99.90;;;;;;5018586;28;20426;-84
2022/03/04 05:55:35;;;;;;;16.93;9.33;;;-5.20;99.90;;;;;;5018592;28;20448;-84
2022/03/04 05:58:01;;;;;;;18.07;9.47;;;-5.20;99.90;;;;;;5017984;28;20206;-84
2022/03/04 06:00:27;;;;;;;19.83;9.93;;;-5.20;99.90;;;;;;5015679;28;20183;-85
2022/03/04 06:02:53;;;;;;;20.60;10.63;;;-5.20;99.90;;;;;;5015895;28;20178;-84
2022/03/04 06:05:21;;;;;;;19.23;10.57;;;-5.20;99.90;;;;;;5020182;28;20451;-85
2022/03/04 06:07:47;;;;;;;18.03;9.70;;;-5.20;99.90;;;;;;5029177;28;20961;-85
2022/03/04 06:10:12;;;;;;;20.80;11.23;;;-5.20;99.90;;;;;;5020782;28;20425;-85
2022/03/04 06:12:38;;;;;;;22.70;11.57;;;-5.10;99.90;;;;;;5021149;28;20175;-84
2022/03/04 06:15:05;;;;;;;21.60;10.57;;;-5.10;99.90;;;;;;5020671;28;20202;-85
2022/03/04 06:17:31;;;;;;;21.40;10.27;;;-5.10;99.90;;;;;;5020384;28;20228;-85
2022/03/04 06:19:56;;;;;;;21.60;11.43;;;-5.10;99.90;;;;;;5020815;28;20911;-85
2022/03/04 06:22:22;;;;;;;29.53;13.30;;;-5.10;99.90;;;;;;5020625;28;20505;-85
2022/03/04 06:24:48;;;;;;;31.37;17.33;;;-5.00;99.90;;;;;;5019918;28;20202;-86
2022/03/04 06:27:14;;;;;;;34.30;18.07;;;-5.00;99.90;;;;;;5021013;28;20641;-85
2022/03/04 06:29:39;;;;;;;34.80;17.27;;;-4.90;99.90;;;;;;5020724;28;20414;-84
2022/03/04 06:32:06;;;;;;;28.33;14.77;;;-4.80;99.90;;;;;;5020802;28;20190;-86
2022/03/04 06:34:32;;;;;;;32.73;16.23;;;-4.80;99.90;;;;;;5020325;28;20226;-86
2022/03/04 06:36:58;;;;;;;26.87;15.77;;;-4.80;99.90;;;;;;5021890;28;20449;-85
2022/03/04 06:39:24;;;;;;;26.73;15.17;;;-4.70;99.90;;;;;;5022103;28;20179;-85
2022/03/04 06:41:49;;;;;;;29.63;14.10;;;-4.60;99.90;;;;;;5022291;28;20167;-85
2022/03/04 06:44:15;;;;;;;24.30;13.93;;;-4.50;99.90;;;;;;5021782;28;20229;-85
2022/03/04 06:46:41;;;;;;;24.77;12.77;;;-4.40;99.90;;;;;;5022122;28;20661;-85
2022/03/04 06:49:10;;;;;;;26.93;13.03;;;-4.30;99.90;;;;;;5022308;28;20179;-87
2022/03/04 06:51:37;;;;;;;24.17;13.10;;;-4.20;99.90;;;;;;5022002;28;20261;-85
2022/03/04 06:54:03;;;;;;;23.90;12.27;;;-4.10;99.90;;;;;;5025140;28;20433;-85
2022/03/04 06:56:28;;;;;;;22.37;12.73;;;-4.00;99.90;;;;;;5020979;28;20520;-85
2022/03/04 06:58:54;;;;;;;30.20;14.20;;;-3.80;99.90;;;;;;5020168;28;20198;-87
2022/03/04 07:01:21;;;;;;;24.30;13.30;;;-3.70;99.90;;;;;;5018729;28;20179;-87
2022/03/04 07:03:47;;;;;;;24.83;12.60;;;-2.90;99.90;;;;;;5018858;28;20652;-87
2022/03/04 07:06:13;;;;;;;21.67;12.00;;;-3.60;99.90;;;;;;5019368;28;20422;-88
2022/03/04 07:08:39;;;;;;;22.07;11.80;;;-3.50;99.90;;;;;;5018229;28;20437;-85
2022/03/04 07:11:05;;;;;;;20.13;12.53;;;-3.40;99.90;;;;;;5022258;28;20182;-88
2022/03/04 07:13:31;;;;;;;24.17;13.10;;;-3.30;99.90;;;;;;5019890;28;20230;-87
2022/03/04 07:15:57;;;;;;;21.50;12.20;;;-3.30;99.90;;;;;;5020175;28;20187;-87
2022/03/04 07:18:23;;;;;;;22.53;12.27;;;-3.20;99.90;;;;;;5019625;28;20472;-84
2022/03/04 07:20:49;;;;;;;22.00;11.60;;;-3.10;99.90;;;;;;5021789;28;20171;-85
2022/03/04 07:23:16;;;;;;;25.80;14.00;;;-3.00;99.90;;;;;;5020018;28;20499;-85
2022/03/04 07:25:42;;;;;;;20.53;11.63;;;-2.90;99.90;;;;;;5020337;28;20433;-85
2022/03/04 07:28:08;;;;;;;22.47;11.90;;;-2.70;99.90;;;;;;5020888;28;20422;-84
2022/03/04 07:30:34;;;;;;;23.50;11.90;;;-2.60;99.90;;;;;;5023640;28;20429;-85
2022/03/04 07:33:02;;;;;;;23.03;12.33;;;-2.50;99.90;;;;;;5024680;28;20425;-84
2022/03/04 07:35:28;;;;;;;21.40;11.70;;;-2.40;99.90;;;;;;5025468;28;20437;-85
2022/03/04 07:37:53;;;;;;;26.50;13.67;;;-2.30;99.90;;;;;;5023757;28;20992;-85
2022/03/04 07:40:19;;;;;;;28.20;14.10;;;-2.10;99.90;;;;;;5024983;28;20402;-85
2022/03/04 07:42:45;;;;;;;24.73;12.40;;;-2.10;99.90;;;;;;5024135;28;20175;-84
2022/03/04 07:45:12;;;;;;;21.13;11.30;;;-1.90;99.90;;;;;;5023449;28;20241;-85
2022/03/04 07:47:39;;;;;;;20.93;12.43;;;-1.70;99.90;;;;;;5023745;28;20198;-86
2022/03/04 07:50:07;;;;;;;20.70;12.13;;;-1.40;99.90;;;;;;5024260;28;20433;-85
2022/03/04 07:52:33;;;;;;;23.80;11.80;;;-1.00;99.90;;;;;;5025530;28;20418;-85
2022/03/04 07:55:05;;;;;;;20.93;11.33;;;-0.60;99.90;;;;;;5024988;28;20550;-85
2022/03/04 07:57:31;;;;;;;23.20;12.37;;;0.20;99.90;;;;;;5025089;28;20207;-86
2022/03/04 07:59:56;;;;;;;19.67;11.37;;;1.10;99.90;;;;;;5025393;28;20480;-86
2022/03/04 08:02:22;;;;;;;21.37;11.70;;;1.80;99.90;;;;;;5025612;28;20229;-86
2022/03/04 08:04:48;;;;;;;22.83;11.73;;;2.00;99.90;;;;;;5027628;28;20209;-86
2022/03/04 08:07:14;;;;;;;20.87;12.63;;;2.40;99.80;;;;;;5040298;28;20171;-85
2022/03/04 08:09:40;;;;;;;23.50;12.10;;;2.90;98.20;;;;;;5038972;28;20221;-86
2022/03/04 08:12:07;;;;;;;23.10;12.67;;;3.00;97.70;;;;;;5035469;28;20187;-86
2022/03/04 08:14:33;;;;;;;22.50;13.70;;;3.20;97.40;;;;;;5018621;28;20435;-86
2022/03/04 08:16:58;;;;;;;23.83;14.93;;;3.10;95.70;;;;;;5024225;28;20218;-86
2022/03/04 08:19:24;;;;;;;22.47;14.07;;;3.40;94.60;;;;;;5027734;28;20218;-86
2022/03/04 08:21:50;;;;;;;23.13;14.53;;;4.00;94.00;;;;;;5031957;28;20268;-86
2022/03/04 08:24:15;;;;;;;21.87;14.20;;;4.60;91.80;;;;;;5019354;28;20267;-86
2022/03/04 08:26:41;;;;;;;21.27;13.60;;;4.90;91.60;;;;;;5017201;28;20188;-86
2022/03/04 08:29:10;;;;;;;23.33;14.07;;;4.60;90.20;;;;;;5017769;28;20175;-86
2022/03/04 08:31:37;;;;;;;24.93;13.53;;;3.80;89.40;;;;;;5016670;28;20196;-87
2022/03/04 08:34:04;;;;;;;23.53;13.70;;;3.20;92.50;;;;;;5016551;28;20568;-86
2022/03/04 08:36:31;;;;;;;20.90;14.47;;;3.10;92.50;;;;;;5017397;28;20203;-86
2022/03/04 08:38:56;;;;;;;21.47;13.83;;;3.40;92.20;;;;;;5016474;28;20187;-87
2022/03/04 08:41:22;;;;;;;20.77;13.73;;;3.60;93.70;;;;;;5017282;28;20248;-86
2022/03/04 08:43:50;;;;;;;24.83;14.50;;;4.10;91.60;;;;;;5016259;28;20288;-87
2022/03/04 08:46:16;;;;;;;20.67;13.63;;;4.30;93.10;;;;;;5017150;28;20623;-86
2022/03/04 08:48:42;;;;;;;23.33;14.07;;;4.60;92.00;;;;;;5016108;28;20192;-87
2022/03/04 08:51:08;;;;;;;20.40;13.60;;;4.80;91.90;;;;;;5016411;28;20214;-86
2022/03/04 08:53:34;;;;;;;18.97;12.80;;;5.10;91.40;;;;;;5019088;28;20207;-86
2022/03/04 08:56:00;;;;;;;22.20;14.33;;;5.30;90.40;;;;;;5021779;28;20194;-87
2022/03/04 08:58:26;;;;;;;20.30;14.20;;;5.40;90.10;;;;;;5019531;28;20211;-86
2022/03/04 09:00:51;;;;;;;21.43;13.83;;;5.30;90.60;;;;;;5019733;28;20210;-87
2022/03/04 09:03:17;;;;;;;20.73;13.17;;;5.30;89.20;;;;;;5019038;28;20660;-83
2022/03/04 09:05:43;;;;;;;21.83;13.87;;;5.20;87.60;;;;;;5018651;28;20186;-83
2022/03/04 09:08:08;;;;;;;22.17;13.80;;;5.20;89.70;;;;;;5021282;28;20183;-83
2022/03/04 09:10:34;;;;;;;18.20;12.87;;;5.40;88.80;;;;;;5021087;28;20702;-83
2022/03/04 09:13:00;;;;;;;18.43;12.90;;;5.60;88.60;;;;;;5017195;28;20187;-83
2022/03/04 09:15:26;;;;;;;19.73;13.53;;;5.60;88.70;;;;;;5017040;28;20190;-83
2022/03/04 09:17:51;;;;;;;23.97;13.80;;;5.70;89.20;;;;;;5017522;28;20668;-83
2022/03/04 09:20:19;;;;;;;22.10;13.10;;;5.90;86.60;;;;;;5017255;28;20521;-83
2022/03/04 09:22:46;;;;;;;17.00;12.93;;;5.90;84.80;;;;;;5016442;28;20179;-82
2022/03/04 09:25:11;;;;;;;17.60;11.90;;;6.00;83.90;;;;;;5016534;28;20557;-83
2022/03/04 09:27:37;;;;;;;16.03;12.40;;;5.60;84.00;;;;;;5016424;28;20179;-83
2022/03/04 09:30:04;;;;;;;18.70;13.13;;;5.30;83.10;;;;;;5017122;28;20187;-83
2022/03/04 09:32:30;;;;;;;19.37;12.63;;;5.50;83.00;;;;;;5016347;28;20183;-84
2022/03/04 09:34:56;;;;;;;16.93;12.03;;;5.90;84.00;;;;;;5016157;28;20225;-84
2022/03/04 09:37:21;;;;;;;18.13;13.17;;;5.70;82.30;;;;;;5018049;28;20229;-83
2022/03/04 09:39:47;;;;;;;16.30;12.30;;;5.50;82.30;;;;;;5016940;28;20688;-83
2022/03/04 09:42:14;;;;;;;17.57;12.73;;;5.40;84.40;;;;;;5016321;28;20187;-83
2022/03/04 09:44:40;;;;;;;20.50;13.60;;;5.70;84.10;;;;;;5017200;28;20265;-83
2022/03/04 09:47:07;;;;;;;18.80;12.17;;;6.10;83.30;;;;;;5017414;28;20187;-84
2022/03/04 09:49:36;;;;;;;15.60;11.90;;;6.30;81.10;;;;;;5018041;28;20176;-82
2022/03/04 09:52:03;;;;;;;17.63;13.23;;;6.30;82.20;;;;;;5000982;28;20613;-82
2022/03/04 09:54:29;;;;;;;15.53;11.93;;;6.60;78.70;;;;;;5017850;28;20240;-83
2022/03/04 09:56:56;;;;;;;21.17;13.10;;;6.70;80.00;;;;;;5016762;28;20291;-82
2022/03/04 09:59:22;;;;;;;18.83;13.13;;;6.90;79.00;;;;;;5015789;28;20176;-82
2022/03/04 10:01:49;;;;;;;17.70;13.23;;;6.30;74.40;;;;;;5016314;28;20185;-82
2022/03/04 10:04:14;;;;;;;17.90;13.20;;;6.10;77.50;;;;;;5016029;28;20688;-83
2022/03/04 10:06:49;;;;;;;16.13;12.37;;;6.10;74.70;;;;;;5017374;28;20178;-82
2022/03/04 10:09:36;;;;;;;18.00;12.00;;;6.20;74.90;;;;;;5017497;28;20157;-82
2022/03/04 10:12:04;;;;;;;17.33;13.30;;;6.70;77.20;;;;;;5017394;28;20177;-83
2022/03/04 10:14:30;;;;;;;17.60;12.77;;;6.90;76.50;;;;;;5015874;28;20663;-83
2022/03/04 10:16:57;;;;;;;18.00;12.93;;;6.90;73.50;;;;;;5017554;28;20217;-83
2022/03/04 10:19:23;;;;;;;18.77;13.83;;;7.00;74.50;;;;;;5017283;28;20208;-84
2022/03/04 10:22:03;;;;;;;18.03;12.23;;;7.20;75.10;;;;;;5016980;28;20321;-84
2022/03/04 10:24:41;;;;;;;18.93;13.10;;;7.10;73.20;;;;;;5015624;28;20244;-84
2022/03/04 10:27:09;;;;;;;20.17;13.83;;;7.20;72.80;;;;;;5016905;28;20488;-84
2022/03/04 10:29:49;;;;;;;20.07;12.53;;;7.80;74.30;;;;;;5016259;28;20253;-84
2022/03/04 10:32:24;;;;;;;18.23;13.23;;;8.00;69.60;;;;;;5017954;28;20239;-83
2022/03/04 10:34:56;;;;;;;19.83;13.60;;;7.90;69.40;;;;;;5016148;28;20293;-84
2022/03/04 10:37:23;;;;;;;19.60;14.30;;;8.30;69.00;;;;;;5015885;28;20566;-83
2022/03/04 10:40:13;;;;;;;18.33;13.83;;;8.10;68.40;;;;;;5018050;28;20639;-84
2022/03/04 10:42:49;;;;;;;19.77;13.37;;;8.30;70.20;;;;;;5019060;28;20179;-84
2022/03/04 10:45:25;;;;;;;16.87;12.50;;;8.30;68.00;;;;;;5018957;28;20204;-84
2022/03/04 10:47:59;;;;;;;17.57;12.97;;;8.20;64.60;;;;;;5018067;28;20205;-84
2022/03/04 10:50:32;;;;;;;18.83;12.37;;;8.50;61.70;;;;;;5019098;28;20183;-84
2022/03/04 10:53:09;;;;;;;19.73;13.77;;;8.40;62.80;;;;;;5018481;28;20271;-83
2022/03/04 10:55:40;;;;;;;16.30;12.60;;;8.40;59.40;;;;;;5016983;28;20686;-83
2022/03/04 10:58:18;;;;;;;18.00;12.40;;;9.20;60.90;;;;;;5017350;28;20206;-83
2022/03/04 11:01:01;;;;;;;15.30;11.60;;;9.70;59.10;;;;;;5016841;28;20233;-83
2022/03/04 11:03:30;;;;;;;16.80;12.13;;;9.70;56.10;;;;;;5018793;28;20252;-84
2022/03/04 11:06:00;;;;;;;17.20;12.17;;;9.70;54.40;;;;;;5020667;28;20181;-82
2022/03/04 11:08:26;;;;;;;18.37;12.57;;;9.00;52.70;;;;;;5021359;28;20197;-83
2022/03/04 11:10:53;;;;;;;18.23;12.67;;;8.80;54.50;;;;;;5021729;28;20186;-83
2022/03/04 11:13:19;;;;;;;16.13;11.57;;;8.90;54.10;;;;;;5021328;28;20236;-83
2022/03/04 11:15:47;;;;;;;18.07;13.37;;;9.20;53.80;;;;;;5022516;28;20659;-82
2022/03/04 11:18:15;;;;;;;16.67;11.90;;;8.90;54.10;;;;;;5022819;28;20213;-82
2022/03/04 11:20:43;;;;;;;13.70;10.90;;;9.10;54.30;;;;;;5022094;28;20295;-82
2022/03/04 11:23:10;;;;;;;15.83;12.47;;;8.60;50.70;;;;;;5022253;28;20593;-82
2022/03/04 11:25:38;;;;;;;19.07;10.93;;;8.90;51.80;;;;;;5022944;28;20180;-82
2022/03/04 11:28:15;;;;;;;15.23;11.27;;;9.10;51.00;;;;;;5039967;28;20192;-85
2022/03/04 11:30:46;;;;;;;15.43;10.93;;;9.30;51.30;;;;;;5031529;28;20175;-81
2022/03/04 11:33:21;;;;;;;14.30;10.10;;;9.60;50.90;;;;;;5022752;28;20186;-81
2022/03/04 11:36:14;;;;;;;14.33;10.37;;;9.30;48.70;;;;;;5023254;28;20246;-80
2022/03/04 11:38:53;;;;;;;12.70;10.47;;;9.20;51.00;;;;;;5021881;28;20246;-80
2022/03/04 11:41:24;;;;;;;12.30;10.13;;;9.70;52.30;;;;;;5023033;28;20269;-82
2022/03/04 11:43:52;;;;;;;15.73;10.93;;;10.00;48.80;;;;;;5022286;28;20227;-81
2022/03/04 11:46:44;;;;;;;14.27;9.77;;;10.20;48.60;;;;;;5021806;28;20179;-81
2022/03/04 11:49:38;;;;;;;12.97;10.20;;;10.50;47.70;;;;;;5022251;28;20178;-82
2022/03/04 11:52:10;;;;;;;13.87;9.53;;;11.10;48.00;;;;;;5030099;28;20193;-82
2022/03/04 11:54:40;;;;;;;13.90;10.53;;;11.10;45.50;;;;;;5020641;28;20218;-81
2022/03/04 11:57:16;;;;;;;12.57;9.93;;;11.20;46.00;;;;;;5024954;28;20199;-82
2022/03/04 11:59:48;;;;;;;12.17;9.77;;;10.90;46.20;;;;;;5019872;28;20171;-83
2022/03/04 12:02:28;;;;;;;12.07;9.63;;;10.70;46.30;;;;;;5018842;28;20178;-83
2022/03/04 12:05:13;;;;;;;12.13;9.50;;;10.80;45.70;;;;;;5021070;28;20182;-83
2022/03/04 12:07:47;;;;;;;13.20;9.40;;;11.40;45.50;;;;;;5019698;28;20659;-82
2022/03/04 12:10:20;;;;;;;14.50;10.07;;;11.00;44.20;;;;;;5019156;28;20182;-82
2022/03/04 12:13:03;;;;;;;14.03;10.03;;;11.70;45.60;;;;;;5021013;28;20202;-83
2022/03/04 12:15:36;;;;;;;12.57;9.53;;;11.50;44.50;;;;;;5022594;28;20184;-83
2022/03/04 12:18:05;;;;;;;16.20;10.33;;;11.20;44.30;;;;;;5021473;28;20261;-83
2022/03/04 12:21:06;;;;;;;13.53;10.10;;;11.60;45.60;;;;;;5021739;28;20171;-83
2022/03/04 12:23:47;;;;;;;11.83;9.27;;;12.00;43.80;;;;;;5020787;28;20206;-82
2022/03/04 12:26:20;;;;;;;13.13;10.23;;;11.70;42.30;;;;;;5021656;28;20175;-83
2022/03/04 12:28:49;;;;;;;13.30;10.00;;;11.50;43.10;;;;;;5022387;28;20669;-83
2022/03/04 12:31:17;;;;;;;13.33;9.77;;;12.00;43.40;;;;;;5022685;28;20205;-82
2022/03/04 12:33:46;;;;;;;14.10;10.03;;;12.80;43.50;;;;;;5021716;28;20199;-83
2022/03/04 12:36:15;;;;;;;12.97;9.07;;;12.40;42.60;;;;;;5020955;28;20664;-82
2022/03/04 12:38:42;;;;;;;14.87;10.07;;;13.00;42.60;;;;;;5019346;28;20200;-82